Time;durP1;ratioP1;P1;durP2;ratioP2;P2;SDS_P1;SDS_P2;PMS_P1;PMS_P2;Temp;Humidity;BMP_temperature;BMP_pressure;BME280_temperature;BME280_humidity;BME280_pressure;Samples;Min_cycle;Max_cycle;Signal;HPM_P1;HPM_P2
2024/03/30 00:01:26;;;;;;;9.32;4.97;;;;;;;;;;4965375;28;20050;-65
2024/03/30 00:03:53;;;;;;;7.72;5.40;;;;;;;;;;4967109;28;20042;-66
2024/03/30 00:06:19;;;;;;;7.88;4.82;;;;;;;;;;4966306;28;20077;-66
2024/03/30 00:08:45;;;;;;;6.55;4.43;;;;;;;;;;4965794;28;20513;-65
2024/03/30 00:11:12;;;;;;;9.07;4.97;;;;;;;;;;4949148;28;20057;-66
2024/03/30 00:13:38;;;;;;;8.32;5.22;;;;;;;;;;4965021;28;20054;-66
2024/03/30 00:16:08;;;;;;;6.75;5.03;;;;;;;;;;4966668;28;20047;-66
2024/03/30 00:18:34;;;;;;;10.82;5.70;;;;;;;;;;4967427;28;20080;-66
2024/03/30 00:21:03;;;;;;;10.98;6.00;;;;;;;;;;4966349;28;20035;-66
2024/03/30 00:23:29;;;;;;;8.85;5.75;;;;;;;;;;4948205;28;20055;-66
2024/03/30 00:25:56;;;;;;;7.95;6.13;;;;;;;;;;4947782;28;20487;-66
2024/03/30 00:28:23;;;;;;;9.35;5.38;;;;;;;;;;4965775;28;20038;-66
2024/03/30 00:30:49;;;;;;;7.78;5.00;;;;;;;;;;4966782;28;20057;-66
2024/03/30 00:33:16;;;;;;;8.63;5.45;;;;;;;;;;4965385;28;20045;-66
2024/03/30 00:35:42;;;;;;;10.48;5.25;;;;;;;;;;4965026;28;20042;-66
2024/03/30 00:38:09;;;;;;;7.45;5.22;;;;;;;;;;4949384;28;20066;-66
2024/03/30 00:40:36;;;;;;;10.02;5.55;;;;;;;;;;4950137;28;20058;-66
2024/03/30 00:43:02;;;;;;;9.48;5.43;;;;;;;;;;4964923;28;20059;-66
2024/03/30 00:45:29;;;;;;;6.57;4.93;;;;;;;;;;4966625;28;20264;-66
2024/03/30 00:47:55;;;;;;;7.97;5.50;;;;;;;;;;4965847;28;20050;-66
2024/03/30 00:50:21;;;;;;;8.07;5.80;;;;;;;;;;4966662;28;20042;-66
2024/03/30 00:52:47;;;;;;;9.43;5.57;;;;;;;;;;4965148;28;20117;-66
2024/03/30 00:55:14;;;;;;;10.10;5.85;;;;;;;;;;4947678;28;20450;-66
2024/03/30 00:57:42;;;;;;;8.10;5.88;;;;;;;;;;4948114;28;20379;-66
2024/03/30 01:00:11;;;;;;;7.20;5.15;;;;;;;;;;4965142;28;20055;-66
2024/03/30 01:02:39;;;;;;;10.32;6.18;;;;;;;;;;4947770;28;20570;-66
2024/03/30 01:05:05;;;;;;;10.13;5.85;;;;;;;;;;4947497;28;20749;-66
2024/03/30 01:07:31;;;;;;;8.40;6.10;;;;;;;;;;4949603;28;20039;-66
2024/03/30 01:09:57;;;;;;;8.60;5.63;;;;;;;;;;4965595;28;20069;-66
2024/03/30 01:12:25;;;;;;;9.38;5.57;;;;;;;;;;4949611;28;20173;-66
2024/03/30 01:14:51;;;;;;;8.07;5.55;;;;;;;;;;4966899;28;20078;-66
2024/03/30 01:17:17;;;;;;;7.57;5.88;;;;;;;;;;4948841;28;20046;-66
2024/03/30 01:19:44;;;;;;;10.15;5.93;;;;;;;;;;4964483;28;20083;-66
2024/03/30 01:22:11;;;;;;;9.65;6.05;;;;;;;;;;4965340;28;20368;-66
2024/03/30 01:24:37;;;;;;;8.32;5.90;;;;;;;;;;4947926;28;20430;-66
2024/03/30 01:27:08;;;;;;;7.47;5.40;;;;;;;;;;4963664;28;20499;-66
2024/03/30 01:29:35;;;;;;;8.20;5.90;;;;;;;;;;4964739;28;20046;-66
2024/03/30 01:32:02;;;;;;;8.80;5.30;;;;;;;;;;4965700;28;20352;-66
2024/03/30 01:34:29;;;;;;;7.93;6.05;;;;;;;;;;4948640;28;20498;-66
2024/03/30 01:36:55;;;;;;;9.30;6.22;;;;;;;;;;4965398;28;20042;-66
2024/03/30 01:39:21;;;;;;;9.30;5.95;;;;;;;;;;4963568;28;20093;-66
2024/03/30 01:41:47;;;;;;;7.70;5.93;;;;;;;;;;4945760;28;20050;-66
2024/03/30 01:44:14;;;;;;;9.68;6.20;;;;;;;;;;4965389;28;20244;-66
2024/03/30 01:46:41;;;;;;;10.23;6.40;;;;;;;;;;4963241;28;20059;-66
2024/03/30 01:49:08;;;;;;;9.80;6.50;;;;;;;;;;4965755;28;20150;-66
2024/03/30 01:51:35;;;;;;;8.25;5.70;;;;;;;;;;4965001;28;20051;-66
2024/03/30 01:54:01;;;;;;;9.60;6.05;;;;;;;;;;4964403;28;20078;-66
2024/03/30 01:56:29;;;;;;;8.55;6.13;;;;;;;;;;4965895;28;20046;-66
2024/03/30 01:58:55;;;;;;;8.48;6.13;;;;;;;;;;4965105;28;20347;-66
2024/03/30 02:01:21;;;;;;;10.05;6.03;;;;;;;;;;4964594;28;20051;-67
2024/03/30 02:03:50;;;;;;;9.40;5.95;;;;;;;;;;4965183;28;20047;-66
2024/03/30 02:06:16;;;;;;;8.90;6.05;;;;;;;;;;4936392;28;20528;-66
2024/03/30 02:08:43;;;;;;;10.15;6.00;;;;;;;;;;4945493;29;20475;-66
2024/03/30 02:11:10;;;;;;;8.55;5.72;;;;;;;;;;4946883;29;20069;-66
2024/03/30 02:13:36;;;;;;;8.25;5.50;;;;;;;;;;4945554;29;20051;-66
2024/03/30 02:16:03;;;;;;;10.52;5.88;;;;;;;;;;4945842;29;20070;-66
2024/03/30 02:18:29;;;;;;;8.88;5.30;;;;;;;;;;4944412;28;20043;-66
2024/03/30 02:20:55;;;;;;;10.60;7.13;;;;;;;;;;4946365;29;20047;-66
2024/03/30 02:23:21;;;;;;;6.85;5.60;;;;;;;;;;4946195;28;20158;-66
2024/03/30 02:25:47;;;;;;;9.52;5.47;;;;;;;;;;4948657;29;20054;-66
2024/03/30 02:28:15;;;;;;;8.85;5.70;;;;;;;;;;4948889;29;20043;-66
2024/03/30 02:30:42;;;;;;;8.38;5.38;;;;;;;;;;4945889;29;20130;-66
2024/03/30 02:33:08;;;;;;;8.60;5.20;;;;;;;;;;4948533;29;20093;-66
2024/03/30 02:35:35;;;;;;;8.95;5.13;;;;;;;;;;4944999;29;20105;-66
2024/03/30 02:40:56;;;;;;;9.30;5.38;;;;;;;;;;4955440;28;20070;-66
2024/03/30 02:43:23;;;;;;;7.50;5.05;;;;;;;;;;4951502;29;20507;-66
2024/03/30 02:45:49;;;;;;;7.43;5.07;;;;;;;;;;4954290;28;20179;-66
2024/03/30 02:48:15;;;;;;;7.22;4.82;;;;;;;;;;4947591;28;20447;-66
2024/03/30 02:50:42;;;;;;;8.00;4.65;;;;;;;;;;4945217;28;20071;-66
2024/03/30 02:53:08;;;;;;;7.28;4.25;;;;;;;;;;4947600;28;20416;-66
2024/03/30 02:55:34;;;;;;;6.20;4.30;;;;;;;;;;4964021;28;20059;-66
2024/03/30 02:58:00;;;;;;;7.03;4.40;;;;;;;;;;4951318;28;20047;-66
2024/03/30 03:00:26;;;;;;;9.98;4.82;;;;;;;;;;4947476;28;20127;-66
2024/03/30 03:02:53;;;;;;;7.25;4.03;;;;;;;;;;4949261;28;20035;-66
2024/03/30 03:05:19;;;;;;;6.95;4.20;;;;;;;;;;4944342;28;20107;-66
2024/03/30 03:07:45;;;;;;;6.53;4.03;;;;;;;;;;4959276;28;20046;-66
2024/03/30 03:10:12;;;;;;;6.78;4.35;;;;;;;;;;4949858;28;20055;-66
2024/03/30 03:12:38;;;;;;;6.80;4.28;;;;;;;;;;4967628;28;20375;-66
2024/03/30 03:15:04;;;;;;;6.90;4.28;;;;;;;;;;4950918;28;20051;-66
2024/03/30 03:17:31;;;;;;;5.72;4.15;;;;;;;;;;4966792;28;20054;-66
2024/03/30 03:19:57;;;;;;;7.10;4.50;;;;;;;;;;4948713;28;20065;-66
2024/03/30 03:22:23;;;;;;;6.50;4.25;;;;;;;;;;4947969;28;20095;-66
2024/03/30 03:24:50;;;;;;;8.10;4.03;;;;;;;;;;4963550;28;20100;-66
2024/03/30 03:27:16;;;;;;;5.40;3.63;;;;;;;;;;4965460;28;20089;-64
2024/03/30 03:29:42;;;;;;;8.43;4.15;;;;;;;;;;4966008;28;20122;-66
2024/03/30 03:32:08;;;;;;;5.63;3.75;;;;;;;;;;4964103;28;20450;-66
2024/03/30 03:34:34;;;;;;;7.43;3.65;;;;;;;;;;4967064;28;20091;-66
2024/03/30 03:37:01;;;;;;;5.88;3.40;;;;;;;;;;4966663;28;20162;-66
2024/03/30 03:39:27;;;;;;;5.15;3.53;;;;;;;;;;4946806;28;20070;-66
2024/03/30 03:41:53;;;;;;;5.75;3.83;;;;;;;;;;4949356;28;20447;-66
2024/03/30 03:44:19;;;;;;;6.28;3.78;;;;;;;;;;4949284;28;20379;-67
2024/03/30 03:46:45;;;;;;;6.50;3.50;;;;;;;;;;4965703;28;20126;-66
2024/03/30 03:49:11;;;;;;;5.88;3.72;;;;;;;;;;4949146;28;20094;-66
2024/03/30 03:51:38;;;;;;;8.15;3.80;;;;;;;;;;4964489;28;20082;-66
2024/03/30 03:54:04;;;;;;;5.10;3.53;;;;;;;;;;4967424;28;20050;-66
2024/03/30 03:56:30;;;;;;;7.10;3.97;;;;;;;;;;4967289;28;20069;-66
2024/03/30 03:58:56;;;;;;;5.82;3.40;;;;;;;;;;4963922;28;20153;-66
2024/03/30 04:01:22;;;;;;;7.90;4.18;;;;;;;;;;4949364;28;20090;-66
2024/03/30 04:03:49;;;;;;;5.10;3.50;;;;;;;;;;4947645;28;20035;-66
2024/03/30 04:06:15;;;;;;;5.18;3.30;;;;;;;;;;4950673;28;20726;-66
2024/03/30 04:08:41;;;;;;;5.50;3.22;;;;;;;;;;4950144;28;20175;-66
2024/03/30 04:11:07;;;;;;;7.40;3.63;;;;;;;;;;4965584;28;20495;-66
2024/03/30 04:13:34;;;;;;;7.18;3.67;;;;;;;;;;4965748;28;20498;-66
2024/03/30 04:16:02;;;;;;;5.18;3.50;;;;;;;;;;4949476;28;20109;-66
2024/03/30 04:18:29;;;;;;;8.02;3.63;;;;;;;;;;4964479;28;20391;-66
2024/03/30 04:20:57;;;;;;;6.40;3.90;;;;;;;;;;4966919;28;20084;-66
2024/03/30 04:23:23;;;;;;;5.22;3.45;;;;;;;;;;4966507;28;20101;-66
2024/03/30 04:25:59;;;;;;;5.75;3.00;;;;;;;;;;4948984;28;20063;-66
2024/03/30 04:28:25;;;;;;;4.97;3.40;;;;;;;;;;4966595;28;20447;-66
2024/03/30 04:30:55;;;;;;;5.53;3.10;;;;;;;;;;4966684;28;20043;-66
2024/03/30 04:33:22;;;;;;;5.03;2.78;;;;;;;;;;4966475;28;20127;-66
2024/03/30 04:35:56;;;;;;;5.97;2.90;;;;;;;;;;4966997;28;20057;-66
2024/03/30 04:38:22;;;;;;;5.40;2.90;;;;;;;;;;4949873;28;20054;-66
2024/03/30 04:40:58;;;;;;;5.40;2.92;;;;;;;;;;4948824;28;20070;-67
2024/03/30 04:43:25;;;;;;;4.18;2.65;;;;;;;;;;4947142;28;20046;-66
2024/03/30 04:45:51;;;;;;;6.22;3.58;;;;;;;;;;4947699;28;20043;-66
2024/03/30 04:48:18;;;;;;;5.05;3.17;;;;;;;;;;4965280;28;20132;-66
2024/03/30 04:50:44;;;;;;;5.00;2.92;;;;;;;;;;4951606;28;20097;-66
2024/03/30 04:53:13;;;;;;;4.80;3.35;;;;;;;;;;4948760;28;20141;-66
2024/03/30 04:55:39;;;;;;;5.25;3.33;;;;;;;;;;4966161;28;20041;-66
2024/03/30 04:58:05;;;;;;;5.18;3.30;;;;;;;;;;4966880;28;20050;-66
2024/03/30 05:00:34;;;;;;;5.40;2.95;;;;;;;;;;4965866;28;20043;-66
2024/03/30 05:03:00;;;;;;;6.78;3.03;;;;;;;;;;4965823;28;20093;-66
2024/03/30 05:05:26;;;;;;;6.70;3.42;;;;;;;;;;4966813;28;20403;-66
2024/03/30 05:07:52;;;;;;;5.13;3.45;;;;;;;;;;4965067;28;20157;-66
2024/03/30 05:10:18;;;;;;;5.93;3.35;;;;;;;;;;4964057;28;20374;-66
2024/03/30 05:12:44;;;;;;;5.82;3.35;;;;;;;;;;4967103;28;20124;-66
2024/03/30 05:15:11;;;;;;;9.25;3.42;;;;;;;;;;4966190;28;20073;-66
2024/03/30 05:17:37;;;;;;;6.32;3.70;;;;;;;;;;4946965;28;20394;-66
2024/03/30 05:22:48;;;;;;;5.68;3.17;;;;;;;;;;4948485;28;20065;-67
2024/03/30 05:25:14;;;;;;;5.35;3.10;;;;;;;;;;4964844;28;20047;-66
2024/03/30 05:27:40;;;;;;;5.03;3.10;;;;;;;;;;4948234;28;20046;-66
2024/03/30 05:30:08;;;;;;;5.03;3.20;;;;;;;;;;4948156;28;20054;-66
2024/03/30 05:32:34;;;;;;;6.05;3.38;;;;;;;;;;4947793;28;20409;-66
2024/03/30 05:35:00;;;;;;;5.78;3.47;;;;;;;;;;4949967;28;20086;-66
2024/03/30 05:37:27;;;;;;;9.15;3.92;;;;;;;;;;4963068;28;20042;-66
2024/03/30 05:39:53;;;;;;;8.57;4.07;;;;;;;;;;4948223;28;20494;-66
2024/03/30 05:42:19;;;;;;;6.70;4.18;;;;;;;;;;4964846;28;20439;-66
2024/03/30 05:44:47;;;;;;;7.25;4.53;;;;;;;;;;4946972;28;20042;-66
2024/03/30 05:47:13;;;;;;;7.40;4.10;;;;;;;;;;4965374;28;20438;-66
2024/03/30 05:49:40;;;;;;;8.60;4.18;;;;;;;;;;4954136;28;20062;-66
2024/03/30 05:52:06;;;;;;;6.72;3.97;;;;;;;;;;4947916;28;20142;-66
2024/03/30 05:54:32;;;;;;;7.50;4.22;;;;;;;;;;4963751;28;20087;-66
2024/03/30 05:56:58;;;;;;;6.68;4.30;;;;;;;;;;4943662;28;20462;-66
2024/03/30 05:59:24;;;;;;;8.40;4.50;;;;;;;;;;4968495;28;20050;-66
2024/03/30 06:01:50;;;;;;;7.63;4.78;;;;;;;;;;4968445;28;20062;-66
2024/03/30 06:04:17;;;;;;;8.60;4.90;;;;;;;;;;4947576;28;20054;-66
2024/03/30 06:06:43;;;;;;;7.65;5.40;;;;;;;;;;4944214;28;20138;-65
2024/03/30 06:09:09;;;;;;;6.75;4.80;;;;;;;;;;4955013;28;20102;-66
2024/03/30 06:11:35;;;;;;;8.30;5.07;;;;;;;;;;4948113;28;20126;-66
2024/03/30 06:14:03;;;;;;;7.57;5.32;;;;;;;;;;4950076;28;20138;-66
2024/03/30 06:16:29;;;;;;;8.48;5.05;;;;;;;;;;4949191;28;20106;-66
2024/03/30 06:18:55;;;;;;;7.57;5.65;;;;;;;;;;4950917;28;20044;-66
2024/03/30 06:21:21;;;;;;;8.30;6.07;;;;;;;;;;4949393;28;20070;-66
2024/03/30 06:23:48;;;;;;;8.50;6.28;;;;;;;;;;4951632;28;20035;-66
2024/03/30 06:26:14;;;;;;;8.35;6.10;;;;;;;;;;4948400;28;20055;-66
2024/03/30 06:28:40;;;;;;;10.30;6.70;;;;;;;;;;4963292;28;20555;-66
2024/03/30 06:31:08;;;;;;;10.43;6.60;;;;;;;;;;4948434;28;20141;-66
2024/03/30 06:33:34;;;;;;;10.80;7.32;;;;;;;;;;4947672;28;20078;-66
2024/03/30 06:36:01;;;;;;;8.65;6.60;;;;;;;;;;4948942;28;20110;-66
2024/03/30 06:38:27;;;;;;;9.68;7.30;;;;;;;;;;4945252;28;20077;-66
2024/03/30 06:43:41;;;;;;;9.80;7.22;;;;;;;;;;4948902;28;20047;-66
2024/03/30 06:46:07;;;;;;;11.20;7.22;;;;;;;;;;4946501;28;20077;-66
2024/03/30 06:48:33;;;;;;;10.60;7.78;;;;;;;;;;4950245;28;20138;-65
2024/03/30 06:50:59;;;;;;;12.30;7.63;;;;;;;;;;4950492;28;20043;-66
2024/03/30 06:53:25;;;;;;;14.73;8.27;;;;;;;;;;4950885;28;20051;-66
2024/03/30 06:55:52;;;;;;;11.02;8.30;;;;;;;;;;4949124;28;20067;-65
2024/03/30 06:58:18;;;;;;;10.60;8.30;;;;;;;;;;4948829;28;20169;-65
2024/03/30 07:00:44;;;;;;;11.82;8.27;;;;;;;;;;4961842;28;20062;-65
2024/03/30 07:03:10;;;;;;;11.52;8.88;;;;;;;;;;4946646;28;20576;-65
2024/03/30 07:05:36;;;;;;;12.93;9.18;;;;;;;;;;4949772;28;20051;-65
2024/03/30 07:08:03;;;;;;;12.45;8.82;;;;;;;;;;4968766;28;20055;-65
2024/03/30 07:10:29;;;;;;;15.48;9.43;;;;;;;;;;4950041;28;20057;-65
2024/03/30 07:12:55;;;;;;;12.13;9.48;;;;;;;;;;4969513;28;20050;-66
2024/03/30 07:15:21;;;;;;;14.45;10.80;;;;;;;;;;4953076;28;20137;-66
2024/03/30 07:17:48;;;;;;;14.57;9.35;;;;;;;;;;4963431;28;20038;-66
2024/03/30 07:20:15;;;;;;;13.40;9.88;;;;;;;;;;4948823;28;20054;-66
2024/03/30 07:22:41;;;;;;;13.38;9.60;;;;;;;;;;4946123;28;20039;-66
2024/03/30 07:25:07;;;;;;;14.13;10.32;;;;;;;;;;4968492;28;20047;-67
2024/03/30 07:27:34;;;;;;;13.85;10.30;;;;;;;;;;4966798;28;20438;-66
2024/03/30 07:30:00;;;;;;;13.90;9.95;;;;;;;;;;4948924;28;20054;-66
2024/03/30 07:32:26;;;;;;;13.40;10.63;;;;;;;;;;4948754;28;20043;-66
2024/03/30 07:34:53;;;;;;;14.65;10.27;;;;;;;;;;4966712;28;20394;-66
2024/03/30 07:37:19;;;;;;;18.00;10.38;;;;;;;;;;4962772;28;20042;-66
2024/03/30 07:39:45;;;;;;;16.15;10.35;;;;;;;;;;4967752;28;20118;-66
2024/03/30 07:42:12;;;;;;;12.85;10.40;;;;;;;;;;4966865;28;20070;-65
2024/03/30 07:44:38;;;;;;;14.30;10.60;;;;;;;;;;4950086;28;20495;-66
2024/03/30 07:47:05;;;;;;;14.18;11.35;;;;;;;;;;4966410;28;20047;-66
2024/03/30 07:49:32;;;;;;;13.13;9.85;;;;;;;;;;4968137;28;20053;-66
2024/03/30 07:51:58;;;;;;;14.07;10.50;;;;;;;;;;4946995;28;20141;-66
2024/03/30 07:54:24;;;;;;;14.57;10.10;;;;;;;;;;4945317;28;21651;-66
2024/03/30 07:56:54;;;;;;;12.43;10.40;;;;;;;;;;4962102;28;20129;-66
2024/03/30 07:59:21;;;;;;;14.43;10.50;;;;;;;;;;4964212;28;20165;-66
2024/03/30 08:01:47;;;;;;;15.70;10.95;;;;;;;;;;4942809;28;20407;-65
2024/03/30 08:04:15;;;;;;;20.33;10.95;;;;;;;;;;4963635;28;20494;-65
2024/03/30 08:06:42;;;;;;;17.30;10.80;;;;;;;;;;4945642;28;20201;-66
2024/03/30 08:09:09;;;;;;;14.68;11.48;;;;;;;;;;4945282;28;20081;-65
2024/03/30 08:11:35;;;;;;;17.92;11.07;;;;;;;;;;4925757;29;20444;-65
2024/03/30 08:14:02;;;;;;;13.93;11.82;;;;;;;;;;4944784;28;20045;-65
2024/03/30 08:16:28;;;;;;;15.00;11.32;;;;;;;;;;4945310;28;20043;-66
2024/03/30 08:18:55;;;;;;;16.75;11.75;;;;;;;;;;4944178;28;20079;-70
2024/03/30 08:21:23;;;;;;;16.00;11.10;;;;;;;;;;4943641;28;20134;-66
2024/03/30 08:23:50;;;;;;;16.15;11.98;;;;;;;;;;4943849;28;20050;-65
2024/03/30 08:26:16;;;;;;;14.23;10.57;;;;;;;;;;4944745;28;20040;-65
2024/03/30 08:28:42;;;;;;;18.20;12.48;;;;;;;;;;4943373;28;20049;-66
2024/03/30 08:31:08;;;;;;;17.15;11.60;;;;;;;;;;4946263;28;20070;-66
2024/03/30 08:33:34;;;;;;;17.77;11.85;;;;;;;;;;4947317;28;20070;-66
2024/03/30 08:36:01;;;;;;;15.65;11.23;;;;;;;;;;4960759;28;20114;-67
2024/03/30 08:38:27;;;;;;;15.38;11.32;;;;;;;;;;4935694;28;20039;-67
2024/03/30 08:40:53;;;;;;;16.42;11.23;;;;;;;;;;4945524;28;20472;-67
2024/03/30 08:43:20;;;;;;;15.98;12.48;;;;;;;;;;4944790;28;20096;-67
2024/03/30 08:45:46;;;;;;;16.55;11.85;;;;;;;;;;4946486;28;20043;-67
2024/03/30 08:48:13;;;;;;;17.75;11.98;;;;;;;;;;4941026;28;20483;-67
2024/03/30 08:50:39;;;;;;;15.88;10.80;;;;;;;;;;4940922;28;20050;-67
2024/03/30 08:53:08;;;;;;;15.27;11.45;;;;;;;;;;4957094;28;20055;-67
2024/03/30 08:55:35;;;;;;;16.00;11.52;;;;;;;;;;4927703;29;20083;-67
2024/03/30 08:58:02;;;;;;;15.38;11.35;;;;;;;;;;4945909;28;20371;-67
2024/03/30 09:00:28;;;;;;;14.80;10.27;;;;;;;;;;4940042;28;20372;-67
2024/03/30 09:02:54;;;;;;;15.02;9.65;;;;;;;;;;4944119;28;20408;-67
2024/03/30 09:05:21;;;;;;;12.80;10.43;;;;;;;;;;4941981;28;20139;-67
2024/03/30 09:07:47;;;;;;;13.90;10.43;;;;;;;;;;4953021;28;20489;-67
2024/03/30 09:10:14;;;;;;;14.00;11.13;;;;;;;;;;4944848;28;20063;-67
2024/03/30 09:12:40;;;;;;;13.48;10.27;;;;;;;;;;4941196;28;20377;-67
2024/03/30 09:15:06;;;;;;;13.93;9.88;;;;;;;;;;4938721;28;20082;-67
2024/03/30 09:17:32;;;;;;;14.43;10.98;;;;;;;;;;4948198;28;20043;-67
2024/03/30 09:20:01;;;;;;;13.00;9.85;;;;;;;;;;4937853;28;20428;-67
2024/03/30 09:22:27;;;;;;;13.68;9.82;;;;;;;;;;4946871;28;20043;-67
2024/03/30 09:24:54;;;;;;;11.73;9.10;;;;;;;;;;4947340;28;20498;-67
2024/03/30 09:27:23;;;;;;;12.60;9.05;;;;;;;;;;4947443;28;20348;-67
2024/03/30 09:29:49;;;;;;;12.10;9.07;;;;;;;;;;4962217;28;20167;-67
2024/03/30 09:32:15;;;;;;;12.05;8.32;;;;;;;;;;4962816;28;20186;-67
2024/03/30 09:34:41;;;;;;;9.82;8.13;;;;;;;;;;4946904;28;20046;-67
2024/03/30 09:37:08;;;;;;;11.15;9.25;;;;;;;;;;4941388;28;20043;-67
2024/03/30 09:39:36;;;;;;;12.07;9.50;;;;;;;;;;4947654;28;20043;-67
2024/03/30 09:42:04;;;;;;;11.75;8.73;;;;;;;;;;4946743;28;20099;-67
2024/03/30 09:44:30;;;;;;;11.88;9.55;;;;;;;;;;4945237;28;20204;-67
2024/03/30 09:46:56;;;;;;;17.98;12.32;;;;;;;;;;4949366;28;20463;-67
2024/03/30 09:49:23;;;;;;;15.18;11.02;;;;;;;;;;4945314;28;21285;-67
2024/03/30 09:51:51;;;;;;;13.82;9.35;;;;;;;;;;4944785;28;20348;-67
2024/03/30 09:54:17;;;;;;;13.25;9.70;;;;;;;;;;4946623;28;20491;-67
2024/03/30 09:56:45;;;;;;;11.57;8.40;;;;;;;;;;4941780;28;20045;-67
2024/03/30 09:59:12;;;;;;;10.77;8.30;;;;;;;;;;4960382;28;20048;-67
2024/03/30 10:01:38;;;;;;;8.95;6.82;;;;;;;;;;4937462;28;20039;-67
2024/03/30 10:04:04;;;;;;;11.07;7.20;;;;;;;;;;4946736;28;20047;-68
2024/03/30 10:06:34;;;;;;;9.13;7.20;;;;;;;;;;4960498;28;20063;-68
2024/03/30 10:09:03;;;;;;;8.75;7.10;;;;;;;;;;4947033;28;20472;-68
2024/03/30 10:11:31;;;;;;;9.73;7.32;;;;;;;;;;4933668;28;20063;-68
2024/03/30 10:14:02;;;;;;;8.25;6.85;;;;;;;;;;4943745;28;20090;-68
2024/03/30 10:16:28;;;;;;;9.93;6.57;;;;;;;;;;4933111;28;20047;-68
2024/03/30 10:18:55;;;;;;;8.50;6.57;;;;;;;;;;4940670;28;20390;-68
2024/03/30 10:21:22;;;;;;;8.52;5.97;;;;;;;;;;4940366;28;20536;-68
2024/03/30 10:23:49;;;;;;;7.95;5.40;;;;;;;;;;4939882;28;20460;-68
2024/03/30 10:26:17;;;;;;;8.20;5.65;;;;;;;;;;4948082;28;20558;-68
2024/03/30 10:28:43;;;;;;;7.57;5.50;;;;;;;;;;4946349;28;20494;-68
2024/03/30 10:31:10;;;;;;;8.82;5.38;;;;;;;;;;4937463;28;20048;-68
2024/03/30 10:33:36;;;;;;;8.15;5.22;;;;;;;;;;4943981;28;20051;-68
2024/03/30 10:36:03;;;;;;;8.60;5.95;;;;;;;;;;4947046;28;20146;-68
2024/03/30 10:38:29;;;;;;;7.35;5.10;;;;;;;;;;4947272;28;20081;-68
2024/03/30 10:40:55;;;;;;;6.97;4.50;;;;;;;;;;4943813;28;20040;-68
2024/03/30 10:43:22;;;;;;;7.82;4.72;;;;;;;;;;4947508;28;20043;-68
2024/03/30 10:45:48;;;;;;;6.70;5.10;;;;;;;;;;4949201;28;20090;-68
2024/03/30 10:48:14;;;;;;;6.47;5.05;;;;;;;;;;4948237;28;20059;-68
2024/03/30 10:50:40;;;;;;;7.93;4.45;;;;;;;;;;4950879;28;20039;-68
2024/03/30 10:53:06;;;;;;;7.38;5.30;;;;;;;;;;4950136;28;20526;-68
2024/03/30 10:55:37;;;;;;;10.02;5.03;;;;;;;;;;4940320;28;20071;-68
2024/03/30 10:58:03;;;;;;;7.75;5.65;;;;;;;;;;4946471;28;20073;-68
2024/03/30 11:00:30;;;;;;;11.57;5.18;;;;;;;;;;4946758;29;20047;-68
2024/03/30 11:02:58;;;;;;;7.60;5.05;;;;;;;;;;4949813;28;20063;-68
2024/03/30 11:05:25;;;;;;;6.93;4.80;;;;;;;;;;4944569;28;20074;-68
2024/03/30 11:07:52;;;;;;;8.57;5.82;;;;;;;;;;4964783;28;20119;-68
2024/03/30 11:10:18;;;;;;;7.47;5.63;;;;;;;;;;4943842;28;21337;-68
2024/03/30 11:12:45;;;;;;;9.85;5.75;;;;;;;;;;4970316;28;20413;-68
2024/03/30 11:15:11;;;;;;;7.82;5.88;;;;;;;;;;4962290;28;20048;-68
2024/03/30 11:17:44;;;;;;;8.15;5.80;;;;;;;;;;4944402;28;20047;-68
2024/03/30 11:20:12;;;;;;;8.73;6.10;;;;;;;;;;4970715;28;20050;-68
2024/03/30 11:22:58;;;;;;;9.30;5.78;;;;;;;;;;4969402;28;20089;-68
2024/03/30 11:25:27;;;;;;;10.40;7.40;;;;;;;;;;4970564;28;20050;-68
2024/03/30 11:28:14;;;;;;;9.80;6.00;;;;;;;;;;4952143;28;20435;-68
2024/03/30 11:30:45;;;;;;;7.85;6.15;;;;;;;;;;4949816;28;20102;-68
2024/03/30 11:33:16;;;;;;;9.65;6.60;;;;;;;;;;4949779;28;20514;-68
2024/03/30 11:35:45;;;;;;;11.55;6.10;;;;;;;;;;4967152;28;20126;-68
2024/03/30 11:38:12;;;;;;;8.77;6.57;;;;;;;;;;4965584;28;20545;-68
2024/03/30 11:40:42;;;;;;;10.13;6.63;;;;;;;;;;4969453;28;20515;-68
2024/03/30 11:43:23;;;;;;;8.57;6.22;;;;;;;;;;4949543;28;20051;-68
2024/03/30 11:45:50;;;;;;;7.95;6.25;;;;;;;;;;4950211;28;20054;-68
2024/03/30 11:48:17;;;;;;;11.02;6.43;;;;;;;;;;4952533;28;20046;-68
2024/03/30 11:50:44;;;;;;;8.15;6.25;;;;;;;;;;4969186;28;20055;-68
2024/03/30 11:53:15;;;;;;;9.75;6.40;;;;;;;;;;4963524;28;20475;-68
2024/03/30 11:55:44;;;;;;;8.77;6.75;;;;;;;;;;4968898;28;20050;-68
2024/03/30 11:58:17;;;;;;;9.00;6.72;;;;;;;;;;4947720;28;20046;-68
2024/03/30 12:00:47;;;;;;;8.70;6.75;;;;;;;;;;4966835;28;20054;-68
2024/03/30 12:03:13;;;;;;;10.15;6.55;;;;;;;;;;4944678;28;20051;-68
2024/03/30 12:05:41;;;;;;;11.18;7.22;;;;;;;;;;4968532;28;20042;-68
2024/03/30 12:08:09;;;;;;;9.52;6.80;;;;;;;;;;4948942;28;20051;-68
2024/03/30 12:10:46;;;;;;;13.23;10.05;;;;;;;;;;4951204;28;20047;-68
2024/03/30 12:13:13;;;;;;;13.68;10.23;;;;;;;;;;4966063;28;20047;-68
2024/03/30 12:15:39;;;;;;;13.55;9.68;;;;;;;;;;4967232;28;20062;-67
2024/03/30 12:18:06;;;;;;;14.85;10.70;;;;;;;;;;4968321;28;20180;-68
2024/03/30 12:20:32;;;;;;;14.23;10.43;;;;;;;;;;4968554;28;20049;-68
2024/03/30 12:22:59;;;;;;;13.82;9.93;;;;;;;;;;4951139;28;20069;-66
2024/03/30 12:25:26;;;;;;;12.27;9.10;;;;;;;;;;4951529;28;20079;-65
2024/03/30 12:27:52;;;;;;;13.70;10.10;;;;;;;;;;4950053;28;20495;-65
2024/03/30 12:30:19;;;;;;;13.65;10.20;;;;;;;;;;4951412;28;20042;-67
2024/03/30 12:32:45;;;;;;;12.70;9.30;;;;;;;;;;4947952;28;20058;-66
2024/03/30 12:35:11;;;;;;;15.32;10.73;;;;;;;;;;4965582;28;20053;-66
2024/03/30 12:37:37;;;;;;;11.75;9.52;;;;;;;;;;4968407;28;20422;-66
2024/03/30 12:40:04;;;;;;;12.25;9.90;;;;;;;;;;4950650;28;20254;-66
2024/03/30 12:42:30;;;;;;;13.77;9.95;;;;;;;;;;4968743;28;20126;-65
2024/03/30 12:44:58;;;;;;;12.68;9.02;;;;;;;;;;4969027;28;20054;-66
2024/03/30 12:47:24;;;;;;;12.57;9.23;;;;;;;;;;4967198;28;20101;-66
2024/03/30 12:49:50;;;;;;;12.65;9.38;;;;;;;;;;4948470;28;20479;-68
2024/03/30 12:52:16;;;;;;;12.35;9.93;;;;;;;;;;4950395;28;20047;-66
2024/03/30 12:54:43;;;;;;;11.48;9.18;;;;;;;;;;4950957;28;20122;-66
2024/03/30 12:57:09;;;;;;;13.30;10.35;;;;;;;;;;4949017;28;20394;-66
2024/03/30 12:59:35;;;;;;;12.73;10.20;;;;;;;;;;4950364;28;20113;-66
2024/03/30 13:02:03;;;;;;;15.27;9.57;;;;;;;;;;4968007;28;20065;-66
2024/03/30 13:04:31;;;;;;;13.38;10.07;;;;;;;;;;4943055;28;20068;-66
2024/03/30 13:06:57;;;;;;;13.15;10.93;;;;;;;;;;4961364;28;20423;-66
2024/03/30 13:09:24;;;;;;;16.25;11.20;;;;;;;;;;4947392;28;20067;-66
2024/03/30 13:11:50;;;;;;;14.50;10.18;;;;;;;;;;4948874;28;20403;-66
2024/03/30 13:14:17;;;;;;;14.43;10.55;;;;;;;;;;4947947;28;20051;-66
2024/03/30 13:16:43;;;;;;;13.43;11.00;;;;;;;;;;4947044;28;20047;-66
2024/03/30 13:19:14;;;;;;;13.63;10.02;;;;;;;;;;4947318;28;20158;-66
2024/03/30 13:21:44;;;;;;;14.75;11.45;;;;;;;;;;4945973;28;20122;-66
2024/03/30 13:24:10;;;;;;;13.95;10.20;;;;;;;;;;4944556;28;20035;-66
2024/03/30 13:26:38;;;;;;;12.23;9.50;;;;;;;;;;4946208;28;20069;-66
2024/03/30 13:29:04;;;;;;;14.93;10.85;;;;;;;;;;4946212;28;20147;-67
2024/03/30 13:31:30;;;;;;;13.35;9.90;;;;;;;;;;4943901;28;20043;-67
2024/03/30 13:33:57;;;;;;;14.65;9.70;;;;;;;;;;4952859;28;20400;-67
2024/03/30 13:36:23;;;;;;;13.95;10.15;;;;;;;;;;4943770;28;20051;-67
2024/03/30 13:38:49;;;;;;;14.65;10.48;;;;;;;;;;4941769;28;20430;-67
2024/03/30 13:41:15;;;;;;;13.07;9.95;;;;;;;;;;4941802;28;20050;-67
2024/03/30 13:43:42;;;;;;;15.43;11.00;;;;;;;;;;4942297;28;20043;-66
2024/03/30 13:46:08;;;;;;;12.98;10.68;;;;;;;;;;4944168;28;20044;-66
2024/03/30 13:48:35;;;;;;;13.98;9.90;;;;;;;;;;4944623;28;20051;-66
2024/03/30 13:51:01;;;;;;;13.85;9.10;;;;;;;;;;4943444;28;20154;-66
2024/03/30 13:53:27;;;;;;;14.75;10.57;;;;;;;;;;4942796;28;20078;-65
2024/03/30 13:55:54;;;;;;;14.52;9.82;;;;;;;;;;4950127;28;20394;-66
2024/03/30 13:58:25;;;;;;;17.38;9.60;;;;;;;;;;4947003;28;20048;-66
2024/03/30 14:00:52;;;;;;;12.32;8.88;;;;;;;;;;4944908;28;20475;-66
2024/03/30 14:03:20;;;;;;;17.05;8.23;;;;;;;;;;4943810;28;20046;-66
2024/03/30 14:05:47;;;;;;;13.00;8.13;;;;;;;;;;4940611;28;20063;-66
2024/03/30 14:08:13;;;;;;;16.75;9.30;;;;;;;;;;4959917;28;20133;-66
2024/03/30 14:10:39;;;;;;;14.10;7.75;;;;;;;;;;4962205;28;20039;-66
2024/03/30 14:13:05;;;;;;;15.23;8.73;;;;;;;;;;4962778;28;20066;-66
2024/03/30 14:15:31;;;;;;;17.08;7.80;;;;;;;;;;4961067;28;20054;-66
2024/03/30 14:17:58;;;;;;;14.32;7.50;;;;;;;;;;4929388;28;20046;-65
2024/03/30 14:20:24;;;;;;;23.83;6.55;;;;;;;;;;4949812;28;20402;-66
2024/03/30 14:22:50;;;;;;;20.63;5.65;;;;;;;;;;4950719;28;20039;-66
2024/03/30 14:25:16;;;;;;;22.23;5.32;;;;;;;;;;4947975;28;20145;-67
2024/03/30 14:27:43;;;;;;;22.08;5.57;;;;;;;;;;4950551;28;20050;-65
2024/03/30 14:30:09;;;;;;;25.58;5.85;;;;;;;;;;4960948;28;20097;-64
2024/03/30 14:32:35;;;;;;;26.85;5.35;;;;;;;;;;4964353;28;20069;-66
2024/03/30 14:35:02;;;;;;;22.48;5.05;;;;;;;;;;4951119;28;20137;-65
2024/03/30 14:37:28;;;;;;;23.95;5.32;;;;;;;;;;4957044;28;20054;-66
2024/03/30 14:39:55;;;;;;;23.40;5.93;;;;;;;;;;4966915;28;20463;-66